Latest Weather Observations for Cape Grim

IDT60801

Issued at 12:11 pm EST Friday 14 May 2021 (issued every 10 minutes, with the page automatically refreshed every 10 minutes)

About weather observations | Map of weather stations | Latest weather observations for TAS | Other Formats
Station Details ID: 091331 Name: CAPE GRIM Lat: -40.68 Lon: 144.69 Height: 86.0 m
Data from the previous 72 hours. | See also: Recent months at Cape Grim
Date/Time
EST
Temp
°C
App
Temp
°C
Dew
Point
°C
Rel
Hum
%
Delta-T
°C
Wind Press
QNH
hPa
Press
MSL
hPa
Rain since
9am
mm
Dir  Spd
km/h
Gust
km/h
Spd
kts
Gust
kts
14/12:00pm 11.5 1.5 4.5 62 3.2 SW 46 59 25 32 1009.2 1009.2 0.0
14/11:33am 11.0 0.2 4.2 63 3.1 SW 50 70 27 38 1009.4 1009.4 0.0
14/11:30am 11.6 1.1 5.5 66 2.8 SW 50 67 27 36 1009.4 1009.4 0.0
14/11:00am 11.1 -0.7 5.8 70 2.5 SW 57 76 31 41 1009.3 1009.3 0.0
14/10:39am 10.3 -2.1 4.5 67 2.6 SW 59 78 32 42 1009.2 1009.2 0.0
14/10:30am 10.6 -2.4 5.4 70 2.4 SW 63 78 34 42 1009.0 1009.0 0.0
14/10:11am 11.0 -1.6 5.5 69 2.5 SW 61 80 33 43 1008.8 1008.8 0.0
14/10:00am 10.7 -2.9 6.3 74 2.1 SW 67 80 36 43 1008.7 1008.7 0.0
14/09:34am 10.8 -2.0 6.6 75 2.0 SW 63 82 34 44 1008.2 1008.2 0.0
14/09:30am 10.6 -2.6 6.4 75 2.0 SW 65 82 35 44 1008.1 1008.1 0.0
14/09:00am 10.5 -1.9 6.3 75 2.0 SW 61 87 33 47 1007.6 1007.6 8.4
14/08:30am 9.8 -1.7 6.2 78 1.7 SW 56 83 30 45 1006.9 1006.9 8.4
14/08:10am 10.7 -0.4 6.5 75 2.0 SW 54 83 29 45 1006.6 1006.6 8.4
14/08:08am 10.6 0.0 6.7 77 1.8 SW 52 83 28 45 1006.5 1006.5 8.4
14/08:06am 10.5 0.0 7.2 80 1.6 SW 52 83 28 45 1006.4 1006.4 8.4
14/08:05am 10.4 -0.1 7.3 81 1.5 SW 52 83 28 45 1006.5 1006.5 8.4
14/08:04am 10.2 -0.7 7.3 82 1.4 SW 54 83 29 45 1006.5 1006.5 8.4
14/08:00am 9.5 -2.0 6.2 80 1.5 SW 56 83 30 45 1006.6 1006.6 8.4
14/07:58am 10.1 -1.4 6.4 78 1.7 SW 56 83 30 45 1006.6 1006.6 8.0
14/07:54am 9.9 0.2 5.9 76 1.8 SW 46 78 25 42 1006.5 1006.5 8.0
14/07:49am 10.4 0.5 6.4 76 1.9 SW 48 83 26 45 1006.2 1006.2 8.0
14/07:37am 10.8 1.3 6.6 75 2.0 WSW 46 80 25 43 1005.9 1005.9 8.0
14/07:36am 10.6 1.4 6.2 74 2.1 WSW 44 80 24 43 1005.8 1005.8 8.0
14/07:30am 10.1 1.4 7.5 84 1.2 WSW 43 83 23 45 1005.9 1005.9 7.8
14/07:27am 9.5 0.0 6.9 84 1.2 WSW 46 83 25 45 1005.8 1005.8 7.8
14/07:24am 9.1 -1.3 6.0 81 1.4 SW 50 83 27 45 1005.8 1005.8 7.8
14/07:22am 10.5 0.4 7.2 80 1.6 SW 50 80 27 43 1005.6 1005.7 7.6
14/07:20am 10.5 0.0 7.2 80 1.6 SW 52 76 28 41 1005.8 1005.8 7.6
14/07:12am 10.7 1.2 6.6 76 1.9 WSW 46 80 25 43 1005.8 1005.8 7.6
14/07:00am 10.8 2.6 6.7 76 2.0 WSW 39 78 21 42 1005.6 1005.7 7.6
14/06:30am 11.0 2.0 4.7 65 2.9 W 41 70 22 38 1005.1 1005.1 7.6
14/06:14am 9.9 0.3 6.3 78 1.7 SW 46 85 25 46 1005.3 1005.3 7.6
14/06:10am 10.0 0.7 6.0 76 1.9 WSW 44 85 24 46 1005.2 1005.2 7.6
14/06:00am 11.1 2.7 5.4 68 2.6 WSW 39 69 21 37 1005.1 1005.1 7.6
14/05:30am 9.7 0.6 6.1 78 1.7 W 43 67 23 36 1005.0 1005.0 7.6
14/05:00am 11.3 3.2 6.8 74 2.2 WSW 39 63 21 34 1004.9 1004.9 7.6
14/04:51am 10.9 2.1 5.7 70 2.4 WSW 41 65 22 35 1004.8 1004.8 7.4
14/04:50am 10.9 2.2 5.9 71 2.3 WSW 41 65 22 35 1004.8 1004.8 7.4
14/04:30am 10.8 1.8 6.2 73 2.2 SW 43 76 23 41 1004.6 1004.6 7.4
14/04:29am 11.0 2.1 6.7 75 2.0 SW 43 69 23 37 1004.5 1004.5 7.4
14/04:00am 11.0 3.1 6.4 73 2.2 W 37 59 20 32 1004.7 1004.7 7.4
14/03:30am 11.2 3.6 5.9 70 2.5 WSW 35 61 19 33 1004.5 1004.5 7.4
14/03:00am 11.2 2.6 6.3 72 2.3 WSW 41 72 22 39 1004.7 1004.7 7.4
14/02:30am 11.4 4.2 6.1 70 2.5 W 33 59 18 32 1004.8 1004.8 7.4
14/02:00am 10.5 3.7 7.6 82 1.4 WSW 33 59 18 32 1005.4 1005.4 7.4
14/01:39am 9.9 2.2 5.5 74 2.0 WSW 35 76 19 41 1005.3 1005.3 7.4
14/01:30am 11.3 4.4 6.6 73 2.2 WSW 32 54 17 29 1005.2 1005.2 7.4
14/01:20am 11.4 4.0 6.7 73 2.2 WSW 35 54 19 29 1005.0 1005.0 7.4
14/01:09am 11.0 2.8 8.1 82 1.4 W 41 59 22 32 1005.3 1005.3 7.4
14/01:00am 10.9 2.2 8.3 84 1.3 W 44 57 24 31 1005.4 1005.4 7.2
14/12:30am 10.2 -0.9 8.1 87 1.0 W 56 70 30 38 1006.0 1006.0 7.2
14/12:00am 9.5 0.6 7.8 89 0.8 W 44 67 24 36 1006.6 1006.6 6.8
 
Date/Time
EST
Temp
°C
App
Temp
°C
Dew
Point
°C
Rel
Hum
%
Delta-T
°C
Wind Press
QNH
hPa
Press
MSL
hPa
Rain since
9am
mm
Dir  Spd
km/h
Gust
km/h
Spd
kts
Gust
kts
13/11:51pm 9.9 0.6 7.7 86 1.1 W 46 67 25 36 1006.6 1006.6 6.4
13/11:30pm 11.7 3.0 5.8 67 2.8 WNW 41 52 22 28 1006.5 1006.5 5.2
13/11:00pm 11.0 2.9 7.1 77 1.9 WNW 39 50 21 27 1007.1 1007.1 5.2
13/10:30pm 11.3 3.4 6.4 72 2.3 W 37 50 20 27 1007.6 1007.6 5.2
13/10:00pm 11.5 3.6 4.3 61 3.3 W 35 50 19 27 1007.9 1007.9 5.2
13/09:30pm 11.1 3.7 5.0 66 2.8 W 33 50 18 27 1008.0 1008.0 5.2
13/09:00pm 11.2 3.9 4.7 64 3.0 W 32 50 17 27 1008.2 1008.2 5.2
13/08:30pm 11.1 4.5 4.3 63 3.1 WSW 28 50 15 27 1008.4 1008.4 5.2
13/08:00pm 11.0 4.2 5.3 68 2.6 WSW 30 52 16 28 1008.4 1008.4 5.2
13/07:30pm 11.0 3.9 5.3 68 2.6 WSW 32 54 17 29 1008.4 1008.4 5.2
13/07:00pm 10.6 3.4 6.0 73 2.1 WSW 33 65 18 35 1008.2 1008.2 5.2
13/06:30pm 10.4 2.9 6.2 75 2.0 WSW 35 69 19 37 1008.1 1008.1 5.2
13/06:00pm 10.9 3.7 5.0 67 2.7 WSW 32 57 17 31 1007.8 1007.8 5.2
13/05:30pm 10.8 3.2 5.8 71 2.3 WSW 35 69 19 37 1007.6 1007.6 5.2
13/05:00pm 10.8 2.7 7.1 78 1.8 SW 39 61 21 33 1007.4 1007.4 5.2
13/04:43pm 10.8 3.0 6.6 75 2.0 SW 37 56 20 30 1007.3 1007.3 5.2
13/04:33pm 10.8 4.4 7.1 78 1.8 W 30 50 16 27 1007.2 1007.2 5.2
13/04:30pm 10.6 4.7 7.3 80 1.6 W 28 44 15 24 1007.3 1007.3 5.2
13/04:19pm 10.5 4.0 6.5 76 1.9 W 30 44 16 24 1007.3 1007.3 5.2
13/04:00pm 10.6 2.2 7.3 80 1.6 SW 41 63 22 34 1007.3 1007.3 5.2
13/03:53pm 10.6 3.6 6.9 78 1.8 SW 33 63 18 34 1007.2 1007.2 5.2
13/03:36pm 11.0 4.1 7.1 77 1.9 W 33 54 18 29 1006.9 1006.9 5.2
13/03:30pm 10.1 3.2 7.2 82 1.4 W 33 46 18 25 1007.0 1007.0 5.2
13/03:17pm 11.2 4.2 6.1 71 2.4 W 32 50 17 27 1006.9 1006.9 5.0
13/03:13pm 11.2 4.6 5.9 70 2.5 WSW 30 52 16 28 1006.9 1006.9 5.0
13/03:00pm 11.3 3.2 5.4 67 2.7 SW 37 65 20 35 1006.6 1006.6 5.0
13/02:30pm 11.3 4.3 5.8 69 2.6 WSW 32 54 17 29 1006.6 1006.6 5.0
13/02:00pm 12.2 4.0 6.7 69 2.6 SW 39 65 21 35 1006.5 1006.5 5.0
13/01:30pm 12.0 4.7 7.3 73 2.3 WSW 35 69 19 37 1006.3 1006.3 5.0
13/01:00pm 11.1 4.7 9.4 89 0.9 SW 33 56 18 30 1006.4 1006.4 5.0
13/12:30pm 10.2 4.0 9.3 94 0.4 WSW 32 52 17 28 1006.8 1006.8 4.8
13/12:05pm 10.0 2.0 8.9 93 0.5 SW 41 59 22 32 1007.1 1007.1 4.4
13/12:00pm 10.0 1.6 9.1 94 0.4 SW 43 59 23 32 1007.1 1007.1 4.4
13/11:33am 10.5 2.7 9.7 95 0.4 SW 41 69 22 37 1007.0 1007.0 3.8
13/11:30am 10.5 2.3 9.7 95 0.4 SW 43 69 23 37 1006.9 1006.9 3.8
13/11:00am 10.8 3.6 10.5 98 0.2 WSW 39 69 21 37 1006.7 1006.7 3.6
13/10:48am 11.0 2.9 10.7 98 0.2 W 44 80 24 43 1006.8 1006.8 2.8
13/10:47am 11.1 2.6 10.8 98 0.2 W 46 80 25 43 1006.8 1006.8 2.6
13/10:42am 11.5 2.3 11.0 97 0.3 NW 50 80 27 43 1006.6 1006.6 1.6
13/10:39am 12.6 3.8 12.1 97 0.3 NW 50 69 27 37 1006.4 1006.4 0.4
13/10:30am 12.7 3.4 11.8 94 0.5 NNW 52 63 28 34 1006.5 1006.5 0.2
13/10:00am 13.2 5.5 11.6 90 0.9 NNW 43 54 23 29 1006.9 1006.9 0.0
13/09:30am 13.1 5.2 11.3 89 1.0 NNW 44 57 24 31 1007.2 1007.2 0.0
13/09:00am 13.2 4.5 11.3 88 1.0 NNW 48 59 26 32 1007.8 1007.8 0.0
13/08:30am 13.1 5.3 11.0 87 1.1 NNW 43 56 23 30 1007.8 1007.8 0.0
13/08:00am 13.2 5.1 10.9 86 1.2 NNW 44 54 24 29 1007.9 1007.9 0.0
13/07:30am 13.1 4.7 11.0 87 1.1 NNW 46 54 25 29 1008.3 1008.3 0.0
13/07:00am 13.1 5.6 11.0 87 1.1 NNW 41 54 22 29 1008.8 1008.8 0.0
13/06:30am 13.4 5.4 11.1 86 1.2 NNW 44 54 24 29 1008.9 1008.9 0.0
13/06:00am 13.3 6.3 11.2 87 1.1 NNW 39 48 21 26 1009.6 1009.6 0.0
13/05:30am 13.0 7.3 11.1 88 1.0 NNW 32 41 17 22 1009.8 1009.8 0.0
13/05:00am 13.0 7.2 10.9 87 1.1 NNW 32 39 17 21 1010.2 1010.2 0.0
13/04:30am 12.8 6.9 10.5 86 1.2 NNW 32 39 17 21 1010.5 1010.5 0.0
13/04:00am 13.0 7.0 10.7 86 1.2 NNW 33 43 18 23 1011.0 1011.0 0.0
13/03:30am 13.1 6.3 10.8 86 1.2 NNW 37 48 20 26 1011.5 1011.5 0.0
13/03:00am 13.3 6.9 10.8 85 1.3 NNW 35 43 19 23 1012.0 1012.0 0.0
13/02:30am 13.3 7.4 10.5 83 1.5 NW 32 44 17 24 1012.5 1012.5 0.0
13/02:09am 13.3 7.8 11.9 91 0.8 N 32 43 17 23 1012.6 1012.6 0.0
13/02:00am 13.5 8.0 12.4 93 0.6 N 33 43 18 23 1012.6 1012.6 0.0
13/01:30am 13.4 8.6 12.8 96 0.3 N 30 35 16 19 1013.0 1013.0 0.0
13/01:00am 13.5 8.4 13.2 98 0.2 N 32 41 17 22 1013.3 1013.3 0.0
13/12:30am 13.4 8.7 13.1 98 0.2 N 30 35 16 19 1014.1 1014.1 0.0
13/12:00am 13.3 8.0 13.0 98 0.2 N 33 39 18 21 1015.0 1015.0 0.0
 
Date/Time
EST
Temp
°C
App
Temp
°C
Dew
Point
°C
Rel
Hum
%
Delta-T
°C
Wind Press
QNH
hPa
Press
MSL
hPa
Rain since
9am
mm
Dir  Spd
km/h
Gust
km/h
Spd
kts
Gust
kts
12/11:30pm 13.3 9.0 13.1 99 0.1 NNE 28 35 15 19 1015.1 1015.1 0.0
12/11:00pm 13.6 9.7 13.3 98 0.2 NNE 26 30 14 16 1015.8 1015.9 0.0
12/10:30pm 13.5 9.2 13.2 98 0.2 NNE 28 33 15 18 1016.1 1016.2 0.0
12/10:00pm 13.6 8.9 13.1 97 0.3 NNE 30 39 16 21 1016.7 1016.8 0.0
12/09:30pm 13.5 9.0 12.7 95 0.4 NE 28 37 15 20 1016.8 1016.9 0.0
12/09:00pm 13.3 7.8 12.0 92 0.7 NNE 32 35 17 19 1017.2 1017.3 0.0
12/08:30pm 13.5 7.9 12.2 92 0.7 NE 33 39 18 21 1018.0 1018.0 0.0
12/08:00pm 13.4 7.9 12.0 91 0.8 NE 32 39 17 21 1018.5 1018.5 0.0
12/07:30pm 13.2 7.5 11.9 92 0.7 NE 33 39 18 21 1018.6 1018.6 0.0
12/07:00pm 13.0 7.5 11.7 92 0.7 NE 32 39 17 21 1019.0 1019.0 0.0
12/06:30pm 12.7 6.9 11.4 92 0.7 NE 33 41 18 22 1019.4 1019.4 0.0
12/06:00pm 12.9 7.3 11.6 92 0.7 ENE 32 41 17 22 1019.6 1019.6 0.0
12/05:30pm 12.5 6.6 11.1 91 0.7 NE 33 44 18 24 1019.4 1019.4 0.0
12/05:00pm 12.8 6.5 11.2 90 0.8 ENE 35 44 19 24 1019.6 1019.6 0.0
12/04:30pm 12.7 6.0 10.9 89 0.9 ENE 37 46 20 25 1020.3 1020.3 0.0
12/04:00pm 12.7 5.5 10.6 87 1.1 ENE 39 50 21 27 1020.6 1020.6 0.0
12/03:30pm 13.2 6.2 11.1 87 1.1 ENE 39 44 21 24 1020.9 1020.9 0.0
12/03:00pm 13.1 6.8 11.0 87 1.1 ENE 35 44 19 24 1021.5 1021.5 0.0
12/02:30pm 13.0 7.0 10.9 87 1.1 ENE 33 43 18 23 1021.6 1021.6 0.0
12/02:00pm 13.7 7.9 10.9 83 1.5 ENE 32 41 17 22 1022.4 1022.4 0.0
12/01:30pm 12.7 6.3 10.6 87 1.1 ENE 35 44 19 24 1022.7 1022.7 0.0
12/01:00pm 12.9 6.4 10.4 85 1.3 ENE 35 46 19 25 1023.1 1023.1 0.0
12/12:30pm 13.2 6.0 10.7 85 1.3 ENE 39 48 21 26 1023.7 1023.7 0.0
12/12:00pm 12.2 6.7 10.6 90 0.8 ENE 30 43 16 23 1024.6 1024.6 0.0
12/11:30am 12.0 6.5 10.4 90 0.8 ENE 30 39 16 21 1025.4 1025.5 0.0
12/11:00am 11.6 5.4 10.0 90 0.8 ENE 33 43 18 23 1025.7 1025.8 0.0
12/10:30am 12.9 7.0 10.6 86 1.2 ENE 32 43 17 23 1026.1 1026.2 0.0
12/10:00am 12.1 6.2 10.3 89 0.9 ENE 32 44 17 24 1026.2 1026.3 0.0
12/09:30am 9.7 4.4 6.8 82 1.4 E 24 32 13 17 1026.4 1026.5 0.0
12/09:00am 9.0 4.8 5.9 81 1.4 ESE 17 24 9 13 1027.0 1027.1 0.0
12/08:30am 8.4 3.6 4.8 78 1.6 ESE 19 22 10 12 1027.4 1027.5 0.0
12/08:00am 7.4 2.9 4.0 79 1.5 ESE 17 20 9 11 1027.4 1027.5 0.0
12/07:30am 7.8 2.7 4.0 77 1.6 ESE 20 24 11 13 1027.4 1027.5 0.0
12/07:00am 7.3 2.3 3.7 78 1.5 E 19 22 10 12 1027.4 1027.5 0.0
12/06:30am 7.3 2.1 3.4 76 1.7 ESE 20 24 11 13 1027.6 1027.7 0.0
12/06:00am 7.4 2.4 3.8 78 1.5 ESE 19 22 10 12 1027.7 1027.8 0.0
12/05:30am 7.5 2.4 4.1 79 1.5 ESE 20 24 11 13 1027.8 1027.9 0.0
12/05:00am 6.5 1.3 3.7 82 1.2 ESE 20 24 11 13 1028.0 1028.1 0.0
12/04:30am 7.0 1.4 3.4 78 1.5 ESE 22 24 12 13 1027.9 1028.0 0.0
12/04:00am 8.0 2.9 4.0 76 1.7 ESE 20 22 11 12 1028.0 1028.1 0.0
12/03:30am 8.1 3.3 4.5 78 1.6 SE 19 20 10 11 1028.3 1028.4 0.0
12/03:00am 8.5 4.2 5.3 80 1.4 ESE 17 22 9 12 1028.4 1028.5 0.0
12/02:30am 8.8 4.0 5.4 79 1.5 ESE 20 24 11 13 1028.5 1028.6 0.0
12/02:00am 8.6 3.7 5.0 78 1.6 ESE 20 28 11 15 1028.5 1028.6 0.0
12/01:30am 8.5 3.1 4.7 77 1.7 ESE 22 28 12 15 1028.8 1028.9 0.0
12/01:00am 8.6 3.5 4.0 73 2.0 ESE 20 26 11 14 1028.9 1029.0 0.0
12/12:30am 8.6 3.1 4.2 74 1.9 ESE 22 30 12 16 1029.1 1029.2 0.0
12/12:00am 8.8 3.5 4.8 76 1.8 ESE 22 28 12 15 1029.2 1029.3 0.0
 
Date/Time
EST
Temp
°C
App
Temp
°C
Dew
Point
°C
Rel
Hum
%
Delta-T
°C
Wind Press
QNH
hPa
Press
MSL
hPa
Rain since
9am
mm
Dir  Spd
km/h
Gust
km/h
Spd
kts
Gust
kts
11/11:30pm 9.0 3.7 5.0 76 1.8 ESE 22 28 12 15 1029.2 1029.3 0.0
11/11:00pm 9.1 3.5 5.3 77 1.7 E 24 28 13 15 1029.2 1029.3 0.0
11/10:30pm 9.2 4.4 5.4 77 1.7 ESE 20 26 11 14 1029.4 1029.5 0.0
11/10:00pm 9.5 4.3 5.7 77 1.7 ESE 22 26 12 14 1029.4 1029.5 0.0
11/09:30pm 9.7 3.8 5.7 76 1.8 ESE 26 32 14 17 1029.2 1029.3 0.0
11/09:00pm 10.6 5.7 6.9 78 1.7 E 22 28 12 15 1029.0 1029.1 0.0
11/08:30pm 10.7 5.7 6.5 75 2.0 ENE 22 30 12 16 1028.8 1028.9 0.0
11/08:00pm 10.3 5.3 6.5 77 1.8 ENE 22 28 12 15 1028.4 1028.5 0.0
11/07:30pm 9.7 5.0 5.9 77 1.8 ENE 20 26 11 14 1028.1 1028.2 0.0
11/07:00pm 10.0 4.5 5.8 75 1.9 ENE 24 28 13 15 1027.7 1027.8 0.0
11/06:30pm 10.1 4.9 5.3 72 2.2 ENE 22 28 12 15 1027.5 1027.6 0.0
11/06:00pm 10.1 4.5 5.5 73 2.1 ENE 24 32 13 17 1027.0 1027.1 0.0
11/05:30pm 9.8 4.2 5.2 73 2.1 ENE 24 32 13 17 1026.7 1026.8 0.0
11/05:00pm 10.1 3.8 5.5 73 2.1 ENE 28 33 15 18 1026.5 1026.6 0.0
11/04:30pm 10.9 5.0 5.7 70 2.4 ENE 26 33 14 18 1026.2 1026.3 0.0
11/04:00pm 11.0 4.2 5.3 68 2.6 ENE 30 35 16 19 1026.1 1026.2 0.0
11/03:30pm 11.4 5.9 5.9 69 2.6 ENE 24 32 13 17 1025.8 1025.9 0.0
11/03:00pm 11.7 7.2 6.0 68 2.7 ENE 19 24 10 13 1025.6 1025.7 0.0
11/02:30pm 11.5 8.5 6.0 69 2.6 NE 11 15 6 8 1025.3 1025.4 0.0
11/02:00pm 11.5 7.3 5.8 68 2.6 ENE 17 20 9 11 1025.1 1025.2 0.0
11/01:30pm 11.5 8.1 6.0 69 2.6 NE 13 19 7 10 1025.0 1025.0 0.0
11/01:00pm 11.3 8.2 5.4 67 2.7 NE 11 17 6 9 1024.9 1024.9 0.0
11/12:30pm 11.6 8.0 5.0 64 3.0 NNE 13 17 7 9 1024.8 1024.8 0.0

Other formats

Comma delimited format used in spreadsheet applications
http://www.bom.gov.au/fwo/IDT60801/IDT60801.95954.axf

JavaScript Object Notation format (JSON) in row-major order
http://www.bom.gov.au/fwo/IDT60801/IDT60801.95954.json

Data quality

Most of these data are generated automatically and are frequently updated. Quality checks on data are not normally performed. It is possible for incorrect values to appear. Refer to information at About Latest Weather Observations and please check the disclaimer before using these data.